Time;durP1;ratioP1;P1;durP2;ratioP2;P2;SDS_P1;SDS_P2;PMS_P1;PMS_P2;Temp;Humidity;BMP_temperature;BMP_pressure;BME280_temperature;BME280_humidity;BME280_pressure;Samples;Min_cycle;Max_cycle;Signal;HPM_P1;HPM_P2
2022/10/28 00:01:21;;;;;;;4.00;3.60;;;;;;;;;;4891743;29;20542;-87
2022/10/28 00:03:52;;;;;;;5.25;3.90;;;;;;;;;;4881605;29;20135;-86
2022/10/28 00:06:34;;;;;;;5.57;3.33;;;;;;;;;;4860852;29;20061;-87
2022/10/28 00:09:08;;;;;;;6.72;3.90;;;;;;;;;;4890449;29;20040;-85
2022/10/28 00:11:38;;;;;;;5.93;4.30;;;;;;;;;;4905332;29;20048;-85
2022/10/28 00:14:06;;;;;;;4.13;3.72;;;;;;;;;;4907564;29;20137;-85
2022/10/28 00:16:35;;;;;;;5.07;3.80;;;;;;;;;;4909584;29;20397;-85
2022/10/28 00:19:04;;;;;;;5.72;3.70;;;;;;;;;;4892901;29;20395;-85
2022/10/28 00:21:32;;;;;;;6.30;3.78;;;;;;;;;;4902974;29;20353;-85
2022/10/28 00:24:00;;;;;;;5.00;3.67;;;;;;;;;;4896118;29;20052;-85
2022/10/28 00:26:29;;;;;;;4.43;3.95;;;;;;;;;;4913631;29;20044;-85
2022/10/28 00:29:07;;;;;;;6.00;3.65;;;;;;;;;;4908292;29;20522;-85
2022/10/28 00:31:35;;;;;;;7.20;4.15;;;;;;;;;;4914547;29;20044;-86
2022/10/28 00:34:04;;;;;;;5.38;4.20;;;;;;;;;;4893526;29;20083;-85
2022/10/28 00:36:32;;;;;;;4.30;3.60;;;;;;;;;;4896481;29;20051;-85
2022/10/28 00:39:00;;;;;;;5.93;4.25;;;;;;;;;;4909648;29;20438;-85
2022/10/28 00:41:29;;;;;;;9.85;4.03;;;;;;;;;;4911417;29;20055;-85
2022/10/28 00:43:58;;;;;;;7.10;4.20;;;;;;;;;;4908003;29;20054;-85
2022/10/28 00:46:25;;;;;;;9.38;4.38;;;;;;;;;;4907340;29;20040;-85
2022/10/28 00:48:59;;;;;;;7.30;4.82;;;;;;;;;;4874688;29;20573;-85
2022/10/28 00:51:26;;;;;;;5.05;4.38;;;;;;;;;;4906786;29;20073;-85
2022/10/28 00:53:55;;;;;;;6.90;4.90;;;;;;;;;;4907124;29;20323;-85
2022/10/28 00:56:23;;;;;;;11.18;5.50;;;;;;;;;;4911689;29;20048;-85
2022/10/28 00:58:57;;;;;;;9.52;5.60;;;;;;;;;;4886638;29;20041;-85
2022/10/28 01:01:25;;;;;;;10.80;5.07;;;;;;;;;;4911475;29;20568;-85
2022/10/28 01:04:07;;;;;;;12.05;5.50;;;;;;;;;;4889585;29;20063;-85
2022/10/28 01:06:34;;;;;;;8.15;4.63;;;;;;;;;;4891522;29;20048;-85
2022/10/28 01:09:01;;;;;;;10.45;5.43;;;;;;;;;;4881657;29;20078;-85
2022/10/28 01:11:34;;;;;;;10.27;4.85;;;;;;;;;;4894224;29;20080;-85
2022/10/28 01:14:05;;;;;;;13.52;4.97;;;;;;;;;;4895083;29;20051;-85
2022/10/28 01:16:40;;;;;;;8.50;5.20;;;;;;;;;;4892881;29;20342;-85
2022/10/28 01:19:17;;;;;;;7.05;5.22;;;;;;;;;;4906813;29;20147;-84
2022/10/28 01:21:50;;;;;;;6.07;4.82;;;;;;;;;;4881298;29;20051;-84
2022/10/28 01:24:46;;;;;;;7.13;5.22;;;;;;;;;;4880588;29;20116;-84
2022/10/28 01:27:20;;;;;;;11.38;5.45;;;;;;;;;;4893721;29;20044;-85
2022/10/28 01:29:53;;;;;;;9.18;5.50;;;;;;;;;;4910913;29;20260;-84
2022/10/28 01:32:29;;;;;;;5.50;5.00;;;;;;;;;;4910259;29;20036;-85
2022/10/28 01:35:11;;;;;;;9.73;5.13;;;;;;;;;;4895346;29;20059;-85
2022/10/28 01:37:48;;;;;;;5.80;4.53;;;;;;;;;;4887124;29;20055;-84
2022/10/28 01:40:30;;;;;;;8.35;4.85;;;;;;;;;;4896262;29;20056;-85
2022/10/28 01:43:08;;;;;;;10.35;4.80;;;;;;;;;;4907710;29;20048;-84
2022/10/28 01:48:43;;;;;;;8.02;4.90;;;;;;;;;;4855178;29;20497;-77
2022/10/28 01:51:16;;;;;;;7.97;4.35;;;;;;;;;;4854856;29;20069;-78
2022/10/28 01:53:45;;;;;;;7.57;4.90;;;;;;;;;;4853891;29;20064;-77
2022/10/28 01:56:15;;;;;;;8.00;4.80;;;;;;;;;;4851273;29;20054;-78
2022/10/28 01:58:43;;;;;;;7.22;5.03;;;;;;;;;;4853225;29;20045;-79
2022/10/28 02:01:11;;;;;;;8.35;5.00;;;;;;;;;;5436839;23;20033;-82
2022/10/28 02:03:39;;;;;;;4.82;4.30;;;;;;;;;;4896506;29;20032;-82
2022/10/28 02:06:14;;;;;;;15.20;4.85;;;;;;;;;;4897335;29;20064;-84
2022/10/28 02:08:41;;;;;;;8.40;5.70;;;;;;;;;;4873037;29;20038;-82
2022/10/28 02:11:17;;;;;;;8.02;5.30;;;;;;;;;;4875358;29;20024;-82
2022/10/28 02:13:44;;;;;;;5.63;5.10;;;;;;;;;;4867667;29;20045;-84
2022/10/28 02:16:17;;;;;;;14.75;5.47;;;;;;;;;;4863860;29;20105;-84
2022/10/28 02:18:53;;;;;;;13.13;5.40;;;;;;;;;;4865150;29;20045;-84
2022/10/28 02:21:36;;;;;;;15.05;5.60;;;;;;;;;;4875677;29;20041;-83
2022/10/28 02:24:10;;;;;;;7.70;4.90;;;;;;;;;;4877979;29;20543;-84
2022/10/28 02:26:41;;;;;;;6.88;4.50;;;;;;;;;;4863349;29;20060;-84
2022/10/28 02:29:15;;;;;;;5.60;5.07;;;;;;;;;;4848427;29;20561;-84
2022/10/28 02:31:49;;;;;;;6.18;5.38;;;;;;;;;;4853468;29;20372;-84
2022/10/28 02:34:19;;;;;;;57.58;6.80;;;;;;;;;;4853539;29;20045;-83
2022/10/28 02:36:49;;;;;;;14.13;5.35;;;;;;;;;;4854931;29;20063;-84
2022/10/28 02:39:20;;;;;;;6.85;4.97;;;;;;;;;;4832758;29;20135;-84
2022/10/28 02:41:47;;;;;;;7.63;4.88;;;;;;;;;;4855153;29;20052;-84
2022/10/28 02:44:18;;;;;;;7.65;4.65;;;;;;;;;;4859136;29;20046;-86
2022/10/28 02:46:46;;;;;;;9.77;5.18;;;;;;;;;;4852384;29;20504;-85
2022/10/28 02:49:14;;;;;;;8.57;4.85;;;;;;;;;;4854004;29;20045;-85
2022/10/28 02:51:44;;;;;;;12.95;4.95;;;;;;;;;;4854161;29;20061;-84
2022/10/28 02:54:14;;;;;;;5.30;4.65;;;;;;;;;;4856062;29;20045;-84
2022/10/28 02:56:48;;;;;;;11.25;4.32;;;;;;;;;;4853727;29;20069;-85
2022/10/28 02:59:15;;;;;;;10.52;4.85;;;;;;;;;;4854577;29;20038;-85
2022/10/28 03:01:42;;;;;;;8.77;4.57;;;;;;;;;;4862777;29;20148;-84
2022/10/28 03:04:10;;;;;;;11.98;5.00;;;;;;;;;;4874333;29;20097;-85
2022/10/28 03:06:37;;;;;;;21.60;5.00;;;;;;;;;;4854845;29;20082;-84
2022/10/28 03:09:04;;;;;;;6.15;4.70;;;;;;;;;;4864672;29;20052;-85
2022/10/28 03:11:32;;;;;;;5.10;4.57;;;;;;;;;;4859151;29;20148;-84
2022/10/28 03:13:59;;;;;;;13.00;4.93;;;;;;;;;;4857943;29;20060;-85
2022/10/28 03:16:26;;;;;;;30.35;4.97;;;;;;;;;;4861563;29;20094;-83
2022/10/28 03:18:54;;;;;;;42.80;5.38;;;;;;;;;;4875065;29;20112;-84
2022/10/28 03:21:21;;;;;;;20.80;4.70;;;;;;;;;;4872180;29;20048;-84
2022/10/28 03:23:48;;;;;;;16.30;4.65;;;;;;;;;;4890038;29;20041;-82
2022/10/28 03:26:15;;;;;;;19.92;5.30;;;;;;;;;;4872863;29;20694;-85
2022/10/28 03:28:43;;;;;;;48.60;5.05;;;;;;;;;;4860872;29;20041;-85
2022/10/28 03:31:10;;;;;;;20.50;5.13;;;;;;;;;;4876877;29;20063;-84
2022/10/28 03:33:37;;;;;;;31.35;5.07;;;;;;;;;;4844670;29;20059;-84
2022/10/28 03:36:05;;;;;;;18.17;4.75;;;;;;;;;;4860074;29;20045;-83
2022/10/28 03:38:32;;;;;;;36.20;5.07;;;;;;;;;;4877963;29;20098;-84
2022/10/28 03:40:59;;;;;;;15.18;5.07;;;;;;;;;;4877866;29;20053;-84
2022/10/28 03:43:27;;;;;;;8.25;4.60;;;;;;;;;;4860637;29;20054;-84
2022/10/28 03:45:54;;;;;;;11.13;4.53;;;;;;;;;;4861254;29;20119;-85
2022/10/28 03:48:21;;;;;;;16.25;5.22;;;;;;;;;;4875549;29;20099;-83
2022/10/28 03:50:52;;;;;;;26.75;5.13;;;;;;;;;;4877025;29;20045;-84
2022/10/28 03:53:19;;;;;;;10.18;4.93;;;;;;;;;;4857596;29;20040;-85
2022/10/28 03:55:57;;;;;;;18.58;4.53;;;;;;;;;;4874550;29;20068;-84
2022/10/28 03:58:24;;;;;;;13.38;5.07;;;;;;;;;;4875021;29;20073;-84
2022/10/28 04:00:52;;;;;;;18.35;5.18;;;;;;;;;;4875404;29;20079;-84
2022/10/28 04:03:20;;;;;;;40.60;6.38;;;;;;;;;;4892622;29;20076;-84
2022/10/28 04:05:48;;;;;;;17.88;4.95;;;;;;;;;;4861184;29;20041;-84
2022/10/28 04:08:16;;;;;;;7.90;4.65;;;;;;;;;;4860041;29;20049;-83
2022/10/28 04:10:43;;;;;;;12.18;5.07;;;;;;;;;;4845334;29;20086;-84
2022/10/28 04:13:14;;;;;;;10.15;4.50;;;;;;;;;;4859361;29;20461;-84
2022/10/28 04:15:41;;;;;;;21.27;5.38;;;;;;;;;;4840719;29;20065;-84
2022/10/28 04:18:08;;;;;;;8.88;5.07;;;;;;;;;;4871225;29;20048;-84
2022/10/28 04:20:36;;;;;;;6.90;4.30;;;;;;;;;;4872136;29;20144;-83
2022/10/28 04:23:03;;;;;;;12.00;5.25;;;;;;;;;;4833159;29;20052;-86
2022/10/28 04:25:30;;;;;;;15.70;5.30;;;;;;;;;;4876264;29;20123;-83
2022/10/28 04:27:58;;;;;;;6.45;4.88;;;;;;;;;;4837724;29;20128;-84
2022/10/28 04:30:25;;;;;;;9.32;5.80;;;;;;;;;;4861276;29;20136;-85
2022/10/28 04:32:52;;;;;;;14.07;5.82;;;;;;;;;;4842617;29;20053;-84
2022/10/28 04:35:20;;;;;;;13.23;6.13;;;;;;;;;;4873220;29;20109;-84
2022/10/28 04:37:47;;;;;;;8.88;5.15;;;;;;;;;;4871658;29;20412;-85
2022/10/28 04:40:15;;;;;;;16.80;6.20;;;;;;;;;;4871196;29;20088;-84
2022/10/28 04:42:42;;;;;;;12.40;5.55;;;;;;;;;;4870594;29;20037;-85
2022/10/28 04:45:09;;;;;;;9.60;4.93;;;;;;;;;;4869904;29;20071;-84
2022/10/28 04:47:37;;;;;;;18.70;5.10;;;;;;;;;;4853254;29;20049;-84
2022/10/28 04:50:04;;;;;;;13.32;5.88;;;;;;;;;;4859738;29;20607;-86
2022/10/28 04:52:31;;;;;;;11.15;5.07;;;;;;;;;;4856247;29;20159;-85
2022/10/28 04:54:59;;;;;;;10.07;5.57;;;;;;;;;;4875588;29;20635;-84
2022/10/28 04:57:26;;;;;;;11.65;5.35;;;;;;;;;;4853667;29;20058;-84
2022/10/28 04:59:53;;;;;;;7.68;5.35;;;;;;;;;;4836416;29;20123;-83
2022/10/28 05:02:22;;;;;;;7.82;5.03;;;;;;;;;;4837771;29;20059;-84
2022/10/28 05:04:49;;;;;;;8.07;5.63;;;;;;;;;;4863754;29;20511;-84
2022/10/28 05:07:16;;;;;;;16.35;5.65;;;;;;;;;;4867370;29;20040;-84
2022/10/28 05:09:49;;;;;;;10.07;5.35;;;;;;;;;;4875168;29;20048;-83
2022/10/28 05:12:16;;;;;;;9.15;5.15;;;;;;;;;;4860343;29;20483;-85
2022/10/28 05:14:44;;;;;;;8.82;4.97;;;;;;;;;;4871015;29;20049;-84
2022/10/28 05:17:11;;;;;;;7.25;5.32;;;;;;;;;;4852773;29;20048;-84
2022/10/28 05:19:38;;;;;;;23.40;5.43;;;;;;;;;;4833146;29;20061;-84
2022/10/28 05:22:06;;;;;;;8.07;4.43;;;;;;;;;;4835825;29;20726;-84
2022/10/28 05:24:33;;;;;;;12.07;5.10;;;;;;;;;;4869898;29;20041;-86
2022/10/28 05:27:00;;;;;;;6.25;5.05;;;;;;;;;;4865878;29;20125;-86
2022/10/28 05:29:27;;;;;;;6.65;4.57;;;;;;;;;;4865961;29;20059;-84
2022/10/28 05:31:59;;;;;;;;;;;;;;;;;;4820949;29;20060;-84
2022/10/28 05:34:26;;;;;;;8.27;5.07;;;;;;;;;;4870570;29;19928;-84
2022/10/28 05:36:54;;;;;;;5.53;4.72;;;;;;;;;;4869912;29;20095;-84
2022/10/28 05:39:21;;;;;;;7.93;4.72;;;;;;;;;;4868694;29;20117;-85
2022/10/28 05:41:48;;;;;;;13.98;4.65;;;;;;;;;;4856890;29;20882;-86
2022/10/28 05:44:15;;;;;;;8.32;5.28;;;;;;;;;;4871758;29;20148;-84
2022/10/28 05:46:43;;;;;;;10.48;5.18;;;;;;;;;;4817081;29;20046;-84
2022/10/28 05:49:10;;;;;;;13.00;5.28;;;;;;;;;;4850180;29;20579;-85
2022/10/28 05:51:37;;;;;;;10.48;4.85;;;;;;;;;;4851346;29;20516;-85
2022/10/28 05:54:05;;;;;;;10.85;4.97;;;;;;;;;;4866067;29;20591;-85
2022/10/28 05:56:32;;;;;;;9.18;4.50;;;;;;;;;;4866708;29;21274;-85
2022/10/28 05:58:59;;;;;;;13.05;5.50;;;;;;;;;;4850721;29;20054;-85
2022/10/28 06:01:26;;;;;;;11.98;5.53;;;;;;;;;;4837089;29;20096;-85
2022/10/28 06:03:54;;;;;;;14.27;6.20;;;;;;;;;;4865657;29;20415;-85
2022/10/28 06:06:21;;;;;;;15.82;5.80;;;;;;;;;;4857046;29;20045;-84
2022/10/28 06:08:48;;;;;;;9.90;5.07;;;;;;;;;;4857518;29;20227;-84
2022/10/28 06:11:16;;;;;;;8.82;5.32;;;;;;;;;;4852879;29;20076;-85
2022/10/28 06:13:43;;;;;;;7.80;5.28;;;;;;;;;;4858287;29;20056;-84
2022/10/28 06:16:10;;;;;;;11.70;5.05;;;;;;;;;;4834418;29;20053;-85
2022/10/28 06:18:38;;;;;;;8.60;5.03;;;;;;;;;;4846624;29;20144;-86
2022/10/28 06:21:05;;;;;;;18.33;4.93;;;;;;;;;;4873903;29;20033;-85
2022/10/28 06:23:33;;;;;;;16.17;5.60;;;;;;;;;;4853020;29;20041;-85
2022/10/28 06:26:01;;;;;;;17.63;5.38;;;;;;;;;;4855140;29;20364;-84
2022/10/28 06:28:31;;;;;;;8.48;5.03;;;;;;;;;;4873974;29;20068;-84
2022/10/28 06:31:03;;;;;;;14.98;5.20;;;;;;;;;;4843815;29;20065;-85
2022/10/28 06:33:32;;;;;;;23.38;5.40;;;;;;;;;;4859072;29;20477;-86
2022/10/28 06:35:59;;;;;;;13.32;5.47;;;;;;;;;;4865457;29;20068;-85
2022/10/28 06:38:27;;;;;;;9.40;5.13;;;;;;;;;;4848451;29;20063;-85
2022/10/28 06:40:57;;;;;;;8.15;5.03;;;;;;;;;;4873527;29;20091;-86
2022/10/28 06:43:25;;;;;;;12.82;5.63;;;;;;;;;;4832679;29;20053;-84
2022/10/28 06:45:55;;;;;;;10.75;5.70;;;;;;;;;;4849190;29;20049;-83
2022/10/28 06:48:24;;;;;;;8.73;5.57;;;;;;;;;;4862985;29;20044;-84
2022/10/28 06:50:54;;;;;;;10.70;6.30;;;;;;;;;;4849216;29;20745;-85
2022/10/28 06:53:22;;;;;;;11.15;5.25;;;;;;;;;;4840871;29;20140;-85
2022/10/28 06:55:53;;;;;;;10.50;5.25;;;;;;;;;;4863966;29;20069;-86
2022/10/28 06:58:21;;;;;;;17.27;5.10;;;;;;;;;;4867750;29;20049;-85
2022/10/28 07:00:48;;;;;;;11.23;5.72;;;;;;;;;;4864569;29;20606;-85
2022/10/28 07:03:17;;;;;;;12.40;5.80;;;;;;;;;;4852682;29;20052;-84
2022/10/28 07:05:45;;;;;;;9.52;5.85;;;;;;;;;;4835995;29;20044;-86
2022/10/28 07:08:13;;;;;;;6.57;5.88;;;;;;;;;;4865385;29;20104;-85
2022/10/28 07:10:41;;;;;;;9.20;5.88;;;;;;;;;;4881004;29;20150;-85
2022/10/28 07:13:08;;;;;;;17.45;6.32;;;;;;;;;;4868606;29;20515;-86
2022/10/28 07:15:36;;;;;;;13.52;6.72;;;;;;;;;;4850107;29;20122;-84
2022/10/28 07:18:03;;;;;;;9.85;5.85;;;;;;;;;;4866268;29;20127;-84
2022/10/28 07:20:31;;;;;;;10.23;6.10;;;;;;;;;;4866190;29;20056;-84
2022/10/28 07:22:59;;;;;;;8.23;7.03;;;;;;;;;;4867586;29;20104;-84
2022/10/28 07:25:30;;;;;;;13.20;6.28;;;;;;;;;;4888703;29;20057;-85
2022/10/28 07:27:58;;;;;;;7.37;5.93;;;;;;;;;;4864736;29;20085;-84
2022/10/28 07:30:26;;;;;;;14.32;8.90;;;;;;;;;;4878231;29;20033;-84
2022/10/28 07:32:54;;;;;;;13.35;6.40;;;;;;;;;;4884087;29;20049;-84
2022/10/28 07:35:22;;;;;;;21.80;7.40;;;;;;;;;;4866915;29;20049;-84
2022/10/28 07:37:50;;;;;;;15.77;7.68;;;;;;;;;;4846250;29;20053;-83
2022/10/28 07:40:18;;;;;;;25.63;6.65;;;;;;;;;;4865725;29;20048;-84
2022/10/28 07:42:46;;;;;;;18.88;6.40;;;;;;;;;;4897857;29;20037;-84
2022/10/28 07:45:14;;;;;;;28.80;8.02;;;;;;;;;;4908142;23;20033;-77
2022/10/28 07:47:41;;;;;;;35.22;8.55;;;;;;;;;;4870496;29;20127;-76
2022/10/28 07:50:09;;;;;;;46.47;9.45;;;;;;;;;;4871637;29;20045;-75
2022/10/28 07:52:36;;;;;;;20.15;7.70;;;;;;;;;;4876166;29;20051;-76
2022/10/28 07:55:04;;;;;;;11.60;7.00;;;;;;;;;;4882543;29;20052;-77
2022/10/28 07:57:33;;;;;;;7.45;6.47;;;;;;;;;;4877364;29;20057;-77
2022/10/28 08:00:01;;;;;;;9.65;7.00;;;;;;;;;;4879394;29;20049;-76
2022/10/28 08:02:36;;;;;;;9.43;6.20;;;;;;;;;;4877690;29;20144;-76
2022/10/28 08:05:04;;;;;;;14.30;7.15;;;;;;;;;;4876923;29;20402;-76
2022/10/28 08:07:31;;;;;;;9.13;8.23;;;;;;;;;;4869193;29;20056;-76
2022/10/28 08:10:04;;;;;;;10.68;8.00;;;;;;;;;;4877417;29;20056;-76
2022/10/28 08:12:32;;;;;;;11.00;8.00;;;;;;;;;;4872153;29;20055;-76
2022/10/28 08:15:01;;;;;;;7.60;6.70;;;;;;;;;;4858842;29;20049;-77
2022/10/28 08:17:28;;;;;;;11.32;8.05;;;;;;;;;;4857449;29;20057;-75
2022/10/28 08:19:56;;;;;;;8.48;7.35;;;;;;;;;;4859408;29;20045;-76
2022/10/28 08:22:23;;;;;;;7.82;7.03;;;;;;;;;;4859584;29;20491;-76
2022/10/28 08:24:51;;;;;;;13.85;7.45;;;;;;;;;;4859407;29;20053;-76
2022/10/28 08:27:18;;;;;;;10.43;7.68;;;;;;;;;;4858334;29;20053;-78
2022/10/28 08:29:45;;;;;;;11.18;7.13;;;;;;;;;;4879097;29;20364;-78
2022/10/28 08:32:13;;;;;;;8.05;7.20;;;;;;;;;;4857934;29;20137;-78
2022/10/28 08:34:41;;;;;;;8.05;6.97;;;;;;;;;;4863399;29;20056;-80
2022/10/28 08:37:10;;;;;;;12.40;6.75;;;;;;;;;;4879322;29;20694;-77
2022/10/28 08:39:37;;;;;;;8.27;7.15;;;;;;;;;;4877176;29;20060;-77
2022/10/28 08:42:06;;;;;;;7.93;7.13;;;;;;;;;;4878357;29;20045;-74
2022/10/28 08:44:46;;;;;;;7.18;6.47;;;;;;;;;;4860952;29;20089;-76
2022/10/28 08:47:14;;;;;;;7.47;6.65;;;;;;;;;;4874681;29;20270;-75
2022/10/28 08:49:43;;;;;;;7.65;6.95;;;;;;;;;;4876310;29;20052;-76
2022/10/28 08:52:15;;;;;;;8.75;7.07;;;;;;;;;;4876210;29;20049;-76
2022/10/28 08:54:49;;;;;;;10.10;6.97;;;;;;;;;;4876926;29;20048;-77
2022/10/28 08:57:20;;;;;;;7.38;6.68;;;;;;;;;;4876209;29;20136;-76
2022/10/28 08:59:50;;;;;;;7.38;6.68;;;;;;;;;;4877272;29;20143;-77
2022/10/28 09:02:21;;;;;;;7.68;6.85;;;;;;;;;;4872535;29;20041;-77
2022/10/28 09:04:52;;;;;;;8.27;7.30;;;;;;;;;;4873332;29;20112;-76
2022/10/28 09:07:21;;;;;;;8.00;7.20;;;;;;;;;;4851316;29;20037;-77
2022/10/28 09:09:50;;;;;;;8.18;7.22;;;;;;;;;;4873355;29;20040;-76
2022/10/28 09:12:22;;;;;;;7.43;6.70;;;;;;;;;;4875397;29;20414;-76
2022/10/28 09:15:06;;;;;;;13.18;7.60;;;;;;;;;;4873705;29;20049;-76
2022/10/28 09:17:35;;;;;;;8.15;7.00;;;;;;;;;;4866440;29;20045;-76
2022/10/28 09:20:13;;;;;;;11.52;6.90;;;;;;;;;;4863381;29;20462;-76
2022/10/28 09:23:01;;;;;;;7.30;6.32;;;;;;;;;;4862107;29;20108;-76
2022/10/28 09:25:47;;;;;;;7.22;6.53;;;;;;;;;;4867201;29;20045;-76
2022/10/28 09:28:23;;;;;;;7.38;6.60;;;;;;;;;;4860617;29;20052;-77
2022/10/28 09:30:56;;;;;;;7.60;6.90;;;;;;;;;;4852727;29;20416;-76
2022/10/28 09:33:37;;;;;;;7.47;6.60;;;;;;;;;;4874085;29;20048;-76
2022/10/28 09:36:05;;;;;;;8.18;6.90;;;;;;;;;;4857955;29;20056;-75
2022/10/28 09:38:34;;;;;;;8.77;7.47;;;;;;;;;;4873394;29;20048;-76
2022/10/28 09:41:05;;;;;;;9.05;6.55;;;;;;;;;;4873361;29;20506;-76
2022/10/28 09:43:34;;;;;;;7.75;6.90;;;;;;;;;;4876057;29;20044;-76
2022/10/28 09:46:03;;;;;;;9.75;6.97;;;;;;;;;;4857062;29;20585;-76
2022/10/28 09:48:31;;;;;;;13.50;11.23;;;;;;;;;;4872974;29;20056;-76
2022/10/28 09:50:59;;;;;;;10.38;7.63;;;;;;;;;;4873179;29;20508;-76
2022/10/28 09:53:36;;;;;;;8.82;7.93;;;;;;;;;;4856876;29;20064;-76
2022/10/28 09:56:05;;;;;;;8.13;7.07;;;;;;;;;;4855222;29;20264;-76
2022/10/28 09:58:33;;;;;;;7.07;6.38;;;;;;;;;;4871112;29;20059;-77
2022/10/28 10:01:02;;;;;;;8.48;6.97;;;;;;;;;;4875268;29;20109;-77
2022/10/28 10:03:29;;;;;;;7.28;6.57;;;;;;;;;;4875671;29;20411;-77
2022/10/28 10:05:58;;;;;;;6.72;6.22;;;;;;;;;;4875027;29;20486;-76
2022/10/28 10:08:25;;;;;;;7.43;6.65;;;;;;;;;;4872083;29;20041;-77
2022/10/28 10:11:05;;;;;;;8.40;6.78;;;;;;;;;;4874511;29;20056;-76
2022/10/28 10:13:34;;;;;;;6.80;6.13;;;;;;;;;;4871940;29;20060;-76
2022/10/28 10:16:11;;;;;;;6.32;5.72;;;;;;;;;;4873134;29;20087;-76
2022/10/28 10:18:45;;;;;;;7.35;6.55;;;;;;;;;;4872579;29;20506;-76
2022/10/28 10:21:15;;;;;;;7.60;7.00;;;;;;;;;;4858596;29;20068;-76
2022/10/28 10:23:43;;;;;;;6.55;6.00;;;;;;;;;;4857918;29;20417;-76
2022/10/28 10:26:10;;;;;;;9.35;6.43;;;;;;;;;;4874930;29;20409;-76
2022/10/28 10:28:46;;;;;;;9.07;7.28;;;;;;;;;;4870387;29;20060;-75
2022/10/28 10:31:20;;;;;;;9.00;7.03;;;;;;;;;;4871684;29;20045;-76
2022/10/28 10:33:52;;;;;;;7.50;6.80;;;;;;;;;;4870798;29;20056;-77
2022/10/28 10:36:22;;;;;;;7.53;6.82;;;;;;;;;;4857435;29;20087;-76
2022/10/28 10:38:58;;;;;;;7.03;6.15;;;;;;;;;;4870260;29;20052;-76
2022/10/28 10:41:35;;;;;;;7.60;6.97;;;;;;;;;;4870530;29;20526;-77
2022/10/28 10:44:22;;;;;;;7.72;6.60;;;;;;;;;;4868758;29;20480;-75
2022/10/28 10:46:59;;;;;;;7.60;6.85;;;;;;;;;;4867932;29;20048;-75
2022/10/28 10:49:33;;;;;;;7.60;6.80;;;;;;;;;;4849744;29;20418;-77
2022/10/28 10:52:02;;;;;;;7.07;6.47;;;;;;;;;;4867401;29;20041;-75
2022/10/28 10:54:31;;;;;;;7.25;6.63;;;;;;;;;;4848053;29;20056;-75
2022/10/28 10:57:18;;;;;;;8.70;7.80;;;;;;;;;;4859936;29;20061;-76
2022/10/28 10:59:47;;;;;;;7.30;6.60;;;;;;;;;;4867390;29;20101;-77
2022/10/28 11:02:35;;;;;;;9.23;6.97;;;;;;;;;;4872774;29;20052;-76
2022/10/28 11:05:06;;;;;;;7.03;6.20;;;;;;;;;;4868631;29;20577;-76
2022/10/28 11:07:33;;;;;;;7.90;6.20;;;;;;;;;;4873279;29;20739;-76
2022/10/28 11:10:01;;;;;;;6.05;5.55;;;;;;;;;;4872435;29;20490;-77
2022/10/28 11:12:30;;;;;;;9.48;6.70;;;;;;;;;;4872028;29;20062;-77
2022/10/28 11:15:16;;;;;;;7.32;6.63;;;;;;;;;;4869845;29;20049;-76
2022/10/28 11:17:53;;;;;;;7.13;6.53;;;;;;;;;;4870015;29;20041;-76
2022/10/28 11:20:28;;;;;;;7.78;6.18;;;;;;;;;;4854276;29;20057;-78
2022/10/28 11:22:56;;;;;;;10.52;7.55;;;;;;;;;;4871310;29;20132;-77
2022/10/28 11:25:29;;;;;;;7.78;6.97;;;;;;;;;;4873701;29;20039;-76
2022/10/28 11:28:02;;;;;;;7.22;6.53;;;;;;;;;;4870719;29;20041;-77
2022/10/28 11:30:43;;;;;;;9.27;6.72;;;;;;;;;;4874002;29;20053;-77
2022/10/28 11:33:22;;;;;;;11.07;7.70;;;;;;;;;;4873544;29;20053;-76
2022/10/28 11:35:59;;;;;;;10.27;7.07;;;;;;;;;;4874722;29;20534;-76
2022/10/28 11:38:36;;;;;;;9.52;7.18;;;;;;;;;;4874291;29;20045;-78
2022/10/28 11:41:12;;;;;;;7.47;6.80;;;;;;;;;;4875967;29;20056;-78
2022/10/28 11:43:51;;;;;;;10.65;7.50;;;;;;;;;;4861150;29;20536;-77
2022/10/28 11:46:33;;;;;;;8.73;7.85;;;;;;;;;;4856952;29;20458;-76
2022/10/28 11:49:19;;;;;;;10.88;8.18;;;;;;;;;;4877253;29;20040;-77
2022/10/28 11:51:57;;;;;;;8.73;7.82;;;;;;;;;;4875414;29;20469;-76
2022/10/28 11:54:42;;;;;;;14.70;9.02;;;;;;;;;;4859329;29;20073;-76
2022/10/28 11:57:12;;;;;;;9.65;8.65;;;;;;;;;;4877139;29;20049;-76
2022/10/28 11:59:52;;;;;;;11.48;10.27;;;;;;;;;;4876125;29;20083;-77
2022/10/28 12:02:19;;;;;;;11.50;9.50;;;;;;;;;;4874843;29;20049;-77
2022/10/28 12:04:59;;;;;;;10.15;9.10;;;;;;;;;;4874970;29;20044;-77
2022/10/28 12:07:46;;;;;;;12.85;9.45;;;;;;;;;;4875031;29;20079;-77
2022/10/28 12:10:20;;;;;;;11.27;9.90;;;;;;;;;;4842719;29;20052;-76
2022/10/28 12:12:59;;;;;;;10.38;9.27;;;;;;;;;;4873454;29;20037;-76
2022/10/28 12:15:26;;;;;;;12.32;10.07;;;;;;;;;;4860162;29;20041;-77
2022/10/28 12:17:59;;;;;;;12.57;9.60;;;;;;;;;;4872647;29;20045;-76
2022/10/28 12:20:30;;;;;;;10.50;8.57;;;;;;;;;;4872832;29;20045;-77
2022/10/28 12:22:59;;;;;;;11.23;8.73;;;;;;;;;;4875399;29;20040;-77
2022/10/28 12:25:28;;;;;;;14.52;8.60;;;;;;;;;;4876358;29;20301;-76
2022/10/28 12:27:58;;;;;;;14.45;9.27;;;;;;;;;;4873171;29;20049;-75
2022/10/28 12:30:32;;;;;;;10.52;9.43;;;;;;;;;;4874865;29;20053;-75
2022/10/28 12:33:04;;;;;;;12.00;9.38;;;;;;;;;;4873978;29;20041;-76
2022/10/28 12:35:31;;;;;;;;;;;;;;;;;;4859875;29;20498;-76
2022/10/28 12:38:10;;;;;;;12.27;8.18;;;;;;;;;;4875139;29;19932;-76
2022/10/28 12:40:45;;;;;;;11.20;9.07;;;;;;;;;;4875800;29;20040;-75
2022/10/28 12:43:23;;;;;;;10.75;8.88;;;;;;;;;;4859282;29;20258;-75
2022/10/28 12:45:52;;;;;;;9.45;8.48;;;;;;;;;;4874644;29;20052;-75
2022/10/28 12:48:23;;;;;;;15.07;12.13;;;;;;;;;;4842047;29;20317;-75
2022/10/28 12:50:56;;;;;;;12.65;9.27;;;;;;;;;;4873039;29;20047;-76
2022/10/28 12:53:26;;;;;;;10.20;9.10;;;;;;;;;;4873235;29;20410;-75
2022/10/28 12:55:59;;;;;;;11.38;8.95;;;;;;;;;;4873902;29;20060;-76
2022/10/28 12:58:29;;;;;;;12.95;9.32;;;;;;;;;;4874302;29;20047;-76
2022/10/28 13:01:00;;;;;;;13.57;8.23;;;;;;;;;;4889354;29;20056;-75
2022/10/28 13:03:27;;;;;;;12.60;8.90;;;;;;;;;;4899469;29;20092;-75
2022/10/28 13:05:55;;;;;;;10.00;8.48;;;;;;;;;;4894711;29;20061;-76
2022/10/28 13:08:28;;;;;;;12.85;8.57;;;;;;;;;;4880106;29;20049;-76
2022/10/28 13:11:14;;;;;;;8.93;7.97;;;;;;;;;;4874753;29;20041;-75
2022/10/28 13:13:49;;;;;;;11.98;8.65;;;;;;;;;;4871884;29;20045;-75
2022/10/28 13:16:35;;;;;;;12.05;10.30;;;;;;;;;;4857294;29;20052;-76
2022/10/28 13:19:21;;;;;;;14.75;10.27;;;;;;;;;;4872558;29;20041;-76
2022/10/28 13:21:54;;;;;;;12.40;9.05;;;;;;;;;;4873493;29;20127;-74
2022/10/28 13:24:36;;;;;;;10.30;8.75;;;;;;;;;;4874381;29;20044;-75
2022/10/28 13:27:04;;;;;;;10.75;8.77;;;;;;;;;;4873345;29;20052;-75
2022/10/28 13:29:34;;;;;;;14.65;9.68;;;;;;;;;;4871849;29;20135;-76
2022/10/28 13:32:01;;;;;;;12.10;8.90;;;;;;;;;;4869807;29;20044;-75
2022/10/28 13:34:31;;;;;;;11.82;9.40;;;;;;;;;;4871389;29;20570;-75
2022/10/28 13:37:02;;;;;;;11.40;9.02;;;;;;;;;;4871236;29;20060;-75
2022/10/28 13:39:32;;;;;;;12.57;8.93;;;;;;;;;;4848470;29;20714;-76
2022/10/28 13:42:22;;;;;;;10.00;8.82;;;;;;;;;;4862315;29;20056;-76
2022/10/28 13:44:57;;;;;;;10.25;9.10;;;;;;;;;;4859480;29;20038;-76
2022/10/28 13:47:29;;;;;;;12.55;8.98;;;;;;;;;;4855844;29;20101;-76
2022/10/28 13:50:06;;;;;;;13.10;9.30;;;;;;;;;;4869650;29;20112;-76
2022/10/28 13:52:34;;;;;;;14.95;9.52;;;;;;;;;;4859012;29;20049;-77
2022/10/28 13:55:14;;;;;;;13.63;9.98;;;;;;;;;;4873823;29;20089;-76
2022/10/28 13:57:46;;;;;;;10.70;8.95;;;;;;;;;;4857505;29;20045;-75
2022/10/28 14:00:16;;;;;;;11.60;9.20;;;;;;;;;;4873810;29;20052;-76
2022/10/28 14:02:59;;;;;;;15.07;9.45;;;;;;;;;;4872838;29;20612;-76
2022/10/28 14:05:33;;;;;;;13.63;9.90;;;;;;;;;;4851301;29;20132;-76
2022/10/28 14:08:24;;;;;;;11.15;8.82;;;;;;;;;;4865441;29;20048;-77
2022/10/28 14:10:53;;;;;;;;;;;;;;;;;;4859233;29;20498;-75
2022/10/28 14:13:23;;;;;;;11.43;8.73;;;;;;;;;;4862335;29;19932;-76
2022/10/28 14:16:11;;;;;;;12.10;9.63;;;;;;;;;;4870448;29;20048;-75
2022/10/28 14:18:41;;;;;;;15.00;9.38;;;;;;;;;;4846557;29;20117;-77
2022/10/28 14:21:11;;;;;;;15.82;9.93;;;;;;;;;;4855420;29;20056;-76
2022/10/28 14:23:42;;;;;;;13.98;10.18;;;;;;;;;;4856197;29;20072;-75
2022/10/28 14:26:09;;;;;;;14.60;9.80;;;;;;;;;;4856377;29;20045;-76
2022/10/28 14:28:36;;;;;;;12.82;8.95;;;;;;;;;;4874136;29;20044;-75
2022/10/28 14:31:10;;;;;;;12.35;9.13;;;;;;;;;;4857040;29;20049;-76
2022/10/28 14:33:37;;;;;;;10.80;8.68;;;;;;;;;;4873616;29;20380;-75
2022/10/28 14:36:20;;;;;;;14.82;8.40;;;;;;;;;;4854428;29;20049;-76
2022/10/28 14:38:51;;;;;;;11.10;8.45;;;;;;;;;;4854547;29;20135;-76
2022/10/28 14:41:18;;;;;;;13.53;8.73;;;;;;;;;;4862853;29;20045;-77
2022/10/28 14:44:05;;;;;;;12.70;8.90;;;;;;;;;;4875237;29;20302;-75
2022/10/28 14:46:51;;;;;;;10.75;8.18;;;;;;;;;;4858691;29;20045;-76
2022/10/28 14:49:25;;;;;;;14.40;8.40;;;;;;;;;;4865315;29;20064;-75
2022/10/28 14:51:59;;;;;;;12.60;7.90;;;;;;;;;;4859147;29;20506;-75
2022/10/28 14:54:36;;;;;;;11.70;8.45;;;;;;;;;;4859950;29;20078;-75
2022/10/28 14:57:07;;;;;;;12.70;8.55;;;;;;;;;;4890362;29;20052;-77
2022/10/28 14:59:40;;;;;;;12.70;9.00;;;;;;;;;;4885228;29;20084;-76
2022/10/28 15:02:18;;;;;;;13.38;8.73;;;;;;;;;;4908992;23;20060;-78